Time;durP1;ratioP1;P1;durP2;ratioP2;P2;SDS_P1;SDS_P2;PMS_P1;PMS_P2;Temp;Humidity;BMP_temperature;BMP_pressure;BME280_temperature;BME280_humidity;BME280_pressure;Samples;Min_cycle;Max_cycle;Signal;HPM_P1;HPM_P2
2021/01/18 00:01:39;;;;;;;33.03;5.22;;;3.70;97.00;;;;;;4901535;29;20120;-76
2021/01/18 00:04:06;;;;;;;32.83;5.13;;;3.70;97.00;;;;;;4889040;29;20040;-76
2021/01/18 00:06:33;;;;;;;30.55;4.60;;;3.70;97.00;;;;;;4918464;29;20047;-77
2021/01/18 00:08:59;;;;;;;30.17;4.80;;;3.60;96.90;;;;;;4889119;29;20032;-76
2021/01/18 00:11:25;;;;;;;34.22;5.53;;;3.60;96.90;;;;;;4914123;29;20051;-76
2021/01/18 00:13:52;;;;;;;31.75;4.53;;;3.60;96.80;;;;;;4913725;29;20048;-76
2021/01/18 00:16:19;;;;;;;31.60;4.63;;;3.60;96.80;;;;;;4918372;29;20043;-76
2021/01/18 00:18:45;;;;;;;25.13;4.78;;;3.60;96.90;;;;;;4901691;29;20087;-76
2021/01/18 00:21:14;;;;;;;27.30;3.92;;;3.50;96.70;;;;;;4886409;29;20378;-76
2021/01/18 00:23:41;;;;;;;34.33;4.35;;;3.50;96.80;;;;;;4912450;29;20390;-76
2021/01/18 00:26:08;;;;;;;21.98;4.00;;;3.50;96.80;;;;;;4917904;29;20508;-76
2021/01/18 00:28:36;;;;;;;24.50;3.75;;;3.50;96.70;;;;;;4917081;29;20047;-76
2021/01/18 00:31:03;;;;;;;27.98;4.88;;;4.20;97.00;;;;;;4917684;29;20036;-76
2021/01/18 00:33:29;;;;;;;27.02;4.72;;;3.50;96.80;;;;;;4917229;29;20051;-76
2021/01/18 00:35:55;;;;;;;29.60;5.03;;;3.50;96.70;;;;;;4916464;29;20040;-76
2021/01/18 00:38:21;;;;;;;29.75;4.35;;;3.50;96.80;;;;;;4917326;29;20040;-75
2021/01/18 00:40:47;;;;;;;30.65;4.00;;;4.20;96.90;;;;;;4890339;29;20041;-75
2021/01/18 00:43:13;;;;;;;29.23;4.10;;;3.40;96.70;;;;;;4917153;29;20043;-75
2021/01/18 00:45:38;;;;;;;23.67;3.88;;;3.40;96.60;;;;;;4894312;29;20052;-75
2021/01/18 00:48:05;;;;;;;19.80;3.72;;;3.40;96.70;;;;;;4905761;29;20036;-75
2021/01/18 00:50:30;;;;;;;32.75;4.97;;;3.40;96.60;;;;;;4910237;29;20397;-75
2021/01/18 00:52:59;;;;;;;28.27;4.05;;;3.40;96.70;;;;;;4899251;29;20040;-75
2021/01/18 00:55:25;;;;;;;28.20;3.88;;;3.40;96.70;;;;;;4905789;29;20507;-75
2021/01/18 00:57:52;;;;;;;21.40;4.07;;;3.40;96.80;;;;;;4910184;29;20044;-77
2021/01/18 01:00:22;;;;;;;21.25;3.65;;;3.40;96.80;;;;;;4916606;29;20085;-77
2021/01/18 01:02:49;;;;;;;24.58;4.47;;;3.40;96.70;;;;;;4890857;29;20044;-78
2021/01/18 01:05:17;;;;;;;24.02;4.00;;;3.40;96.80;;;;;;4898668;29;20040;-77
2021/01/18 01:07:44;;;;;;;30.48;4.55;;;3.40;96.70;;;;;;4910798;29;20043;-77
2021/01/18 01:10:13;;;;;;;32.20;4.72;;;3.40;96.80;;;;;;4910032;29;20040;-77
2021/01/18 01:12:39;;;;;;;27.52;3.45;;;3.40;96.80;;;;;;4916458;29;20058;-77
2021/01/18 01:15:09;;;;;;;28.95;4.38;;;3.40;96.80;;;;;;4900129;29;20032;-77
2021/01/18 01:17:42;;;;;;;31.15;3.78;;;3.40;96.70;;;;;;4911601;29;20040;-76
2021/01/18 01:20:12;;;;;;;30.73;3.33;;;4.70;97.10;;;;;;4912283;29;20044;-76
2021/01/18 01:22:39;;;;;;;24.90;3.63;;;3.40;96.70;;;;;;4915991;29;20032;-76
2021/01/18 01:25:09;;;;;;;24.15;3.85;;;3.50;96.80;;;;;;4906111;29;20441;-76
2021/01/18 01:27:36;;;;;;;19.40;3.97;;;3.50;96.80;;;;;;4898232;29;20048;-76
2021/01/18 01:30:08;;;;;;;32.95;4.40;;;3.50;96.80;;;;;;4909700;29;20532;-77
2021/01/18 01:32:37;;;;;;;20.23;3.30;;;3.50;96.80;;;;;;4898545;29;20143;-77
2021/01/18 01:35:05;;;;;;;24.88;3.67;;;3.50;96.80;;;;;;4899321;29;20036;-77
2021/01/18 01:37:33;;;;;;;31.55;3.92;;;3.50;96.70;;;;;;4905598;29;20425;-77
2021/01/18 01:39:59;;;;;;;27.85;4.13;;;3.50;96.70;;;;;;4912586;29;20041;-77
2021/01/18 01:42:25;;;;;;;19.38;3.63;;;3.50;96.70;;;;;;4913250;29;20032;-77
2021/01/18 01:44:51;;;;;;;19.55;3.33;;;3.50;96.70;;;;;;4913125;29;20040;-77
2021/01/18 01:47:32;;;;;;;25.60;3.28;;;3.50;96.60;;;;;;4907480;29;20036;-77
2021/01/18 01:50:01;;;;;;;22.75;3.65;;;3.40;96.60;;;;;;4906100;29;20039;-77
2021/01/18 01:52:29;;;;;;;27.42;3.25;;;3.40;96.50;;;;;;4894616;29;20036;-78
2021/01/18 01:55:04;;;;;;;19.38;3.53;;;3.40;96.60;;;;;;4906768;29;20118;-73
2021/01/18 01:57:31;;;;;;;31.42;3.63;;;3.40;96.50;;;;;;4905910;29;20044;-73
2021/01/18 01:59:58;;;;;;;28.00;3.55;;;3.70;96.60;;;;;;4909996;29;20043;-73
2021/01/18 02:02:25;;;;;;;20.88;3.65;;;3.30;96.50;;;;;;4893491;29;20036;-73
2021/01/18 02:04:51;;;;;;;25.02;3.42;;;3.30;96.40;;;;;;4914776;29;20114;-72
2021/01/18 02:07:23;;;;;;;21.42;2.83;;;3.20;96.50;;;;;;4916425;29;20036;-72
2021/01/18 02:09:52;;;;;;;17.45;3.42;;;3.20;96.60;;;;;;4910544;29;20040;-72
2021/01/18 02:12:18;;;;;;;21.52;3.58;;;3.20;96.60;;;;;;4889092;29;20044;-72
2021/01/18 02:15:17;;;;;;;19.77;3.20;;;3.20;96.50;;;;;;4912954;29;20052;-75
2021/01/18 02:17:48;;;;;;;28.73;3.78;;;3.20;96.50;;;;;;4891935;29;20091;-74
2021/01/18 02:20:34;;;;;;;23.23;2.97;;;3.20;96.50;;;;;;4915839;29;20054;-74
2021/01/18 02:23:26;;;;;;;26.30;3.42;;;3.20;96.50;;;;;;4908525;29;20063;-75
2021/01/18 02:25:57;;;;;;;34.42;3.42;;;3.70;96.70;;;;;;4922903;29;20035;-75
2021/01/18 02:28:31;;;;;;;18.33;3.55;;;3.10;96.60;;;;;;4934468;29;20047;-75
2021/01/18 02:31:18;;;;;;;20.63;2.83;;;3.20;96.70;;;;;;4916317;29;20059;-76
2021/01/18 02:34:05;;;;;;;25.23;3.38;;;3.20;96.70;;;;;;4911157;29;20043;-76
2021/01/18 02:36:49;;;;;;;20.63;3.40;;;3.10;96.60;;;;;;4909411;29;20086;-76
2021/01/18 02:39:48;;;;;;;18.92;3.72;;;3.10;96.60;;;;;;4926702;29;20051;-75
2021/01/18 02:42:19;;;;;;;16.95;3.05;;;3.10;96.50;;;;;;4936154;29;20031;-75
2021/01/18 02:44:48;;;;;;;21.67;3.33;;;3.10;96.60;;;;;;4928198;29;20060;-76
2021/01/18 02:47:17;;;;;;;24.90;3.05;;;3.10;96.70;;;;;;4918983;29;20064;-76
2021/01/18 02:49:44;;;;;;;17.92;3.15;;;3.10;96.70;;;;;;4903010;29;20492;-76
2021/01/18 02:52:14;;;;;;;19.65;2.65;;;3.10;96.70;;;;;;4895386;29;20124;-76
2021/01/18 02:54:40;;;;;;;21.77;2.55;;;3.20;96.80;;;;;;4902877;29;20036;-76
2021/01/18 02:57:11;;;;;;;20.63;3.15;;;3.10;96.80;;;;;;4919857;29;20123;-76
2021/01/18 02:59:37;;;;;;;18.83;3.22;;;3.20;96.70;;;;;;4916647;29;20042;-76
2021/01/18 03:02:11;;;;;;;26.45;3.72;;;3.20;96.70;;;;;;4927948;29;20110;-76
2021/01/18 03:05:01;;;;;;;18.27;2.63;;;3.10;96.70;;;;;;4919764;29;20036;-77
2021/01/18 03:07:51;;;;;;;19.70;3.15;;;3.10;96.60;;;;;;4916034;29;20115;-76
2021/01/18 03:10:40;;;;;;;25.85;3.20;;;3.70;96.70;;;;;;4909369;29;20059;-76
2021/01/18 03:13:33;;;;;;;25.40;3.85;;;3.10;96.50;;;;;;4912088;29;20481;-76
2021/01/18 03:16:12;;;;;;;20.30;3.30;;;3.10;96.60;;;;;;4914689;29;20044;-76
2021/01/18 03:18:39;;;;;;;19.08;2.65;;;3.10;96.60;;;;;;4902395;29;20036;-76
2021/01/18 03:21:05;;;;;;;23.88;3.30;;;3.30;96.60;;;;;;4895068;29;20095;-77
2021/01/18 03:23:31;;;;;;;19.88;3.15;;;3.00;96.50;;;;;;4899336;29;20051;-77
2021/01/18 03:25:57;;;;;;;17.20;2.80;;;3.00;96.60;;;;;;4910479;29;20500;-73
2021/01/18 03:28:24;;;;;;;24.50;3.70;;;3.00;96.60;;;;;;4902255;29;20448;-74
2021/01/18 03:30:51;;;;;;;18.00;3.13;;;3.00;96.50;;;;;;4907877;29;20036;-73
2021/01/18 03:33:17;;;;;;;20.75;3.28;;;3.00;96.50;;;;;;4906433;29;20458;-74
2021/01/18 03:35:43;;;;;;;17.13;2.80;;;3.00;96.60;;;;;;4906595;29;20378;-74
2021/01/18 03:38:09;;;;;;;18.92;3.90;;;3.00;96.50;;;;;;4901797;29;20067;-75
2021/01/18 03:40:36;;;;;;;25.30;4.47;;;2.90;96.50;;;;;;4908980;29;20043;-74
2021/01/18 03:43:05;;;;;;;19.90;3.55;;;2.90;96.60;;;;;;4917519;29;20040;-74
2021/01/18 03:45:33;;;;;;;26.25;3.90;;;2.90;96.60;;;;;;4910299;29;20061;-74
2021/01/18 03:47:59;;;;;;;18.35;3.53;;;2.90;96.70;;;;;;4918011;29;20054;-74
2021/01/18 03:50:25;;;;;;;19.98;3.33;;;2.80;96.60;;;;;;4907526;29;20128;-74
2021/01/18 03:52:52;;;;;;;22.98;3.65;;;2.80;96.70;;;;;;4914397;29;20104;-74
2021/01/18 03:55:19;;;;;;;20.42;3.25;;;3.90;97.00;;;;;;4909704;29;20055;-74
2021/01/18 03:57:48;;;;;;;18.55;3.40;;;2.80;96.70;;;;;;4900795;29;20662;-75
2021/01/18 04:00:16;;;;;;;29.35;3.70;;;2.90;96.70;;;;;;4918184;29;20087;-74
2021/01/18 04:02:41;;;;;;;19.60;3.35;;;2.80;96.60;;;;;;4912865;29;20074;-77
2021/01/18 04:05:09;;;;;;;21.55;3.90;;;2.90;96.80;;;;;;4915584;29;20052;-78
2021/01/18 04:07:35;;;;;;;26.90;3.80;;;2.90;96.80;;;;;;4897631;29;20389;-77
2021/01/18 04:10:01;;;;;;;16.52;3.80;;;2.90;96.80;;;;;;4916285;29;20061;-77
2021/01/18 04:12:27;;;;;;;17.75;3.50;;;3.00;96.80;;;;;;4901241;29;20055;-77
2021/01/18 04:14:52;;;;;;;25.52;3.75;;;2.90;96.80;;;;;;4918222;29;20469;-77
2021/01/18 04:17:20;;;;;;;25.20;3.28;;;2.90;96.80;;;;;;4886049;29;20051;-78
2021/01/18 04:19:46;;;;;;;19.48;3.55;;;2.90;96.80;;;;;;4928390;29;20063;-76
2021/01/18 04:22:12;;;;;;;16.25;3.47;;;2.90;96.90;;;;;;4900606;29;20048;-76
2021/01/18 04:24:38;;;;;;;21.48;3.67;;;2.90;96.80;;;;;;4917084;29;20044;-74
2021/01/18 04:27:07;;;;;;;21.58;3.65;;;2.90;96.80;;;;;;4899509;29;20032;-73
2021/01/18 04:29:33;;;;;;;16.60;3.50;;;2.90;96.80;;;;;;4917276;29;20058;-73
2021/01/18 04:31:59;;;;;;;28.88;4.07;;;2.90;96.80;;;;;;4871103;29;20052;-73
2021/01/18 04:34:25;;;;;;;22.48;3.55;;;2.90;96.80;;;;;;4905663;29;20088;-77
2021/01/18 04:36:50;;;;;;;24.60;3.88;;;3.00;96.80;;;;;;4912902;29;20425;-77
2021/01/18 04:39:16;;;;;;;22.13;4.07;;;3.00;96.80;;;;;;4917461;29;20131;-77
2021/01/18 04:41:44;;;;;;;29.90;4.07;;;2.90;96.80;;;;;;4899126;29;20477;-76
2021/01/18 04:44:13;;;;;;;17.20;3.58;;;3.00;96.80;;;;;;4900691;29;20043;-77
2021/01/18 04:46:41;;;;;;;25.00;3.83;;;3.00;96.80;;;;;;4912095;29;20544;-76
2021/01/18 04:49:08;;;;;;;19.98;4.07;;;3.00;96.80;;;;;;4916908;29;20115;-76
2021/01/18 04:51:48;;;;;;;23.52;3.95;;;3.00;96.90;;;;;;4918262;29;20046;-76
2021/01/18 04:54:16;;;;;;;20.58;4.20;;;3.00;96.90;;;;;;4919086;29;20040;-79
2021/01/18 04:57:07;;;;;;;23.67;4.32;;;3.00;97.20;;;;;;4917411;29;20488;-77
2021/01/18 04:59:48;;;;;;;22.92;4.38;;;3.10;96.90;;;;;;4916966;29;20512;-77
2021/01/18 05:02:24;;;;;;;22.02;4.65;;;3.10;96.90;;;;;;4909393;29;20063;-77
2021/01/18 05:04:51;;;;;;;26.08;3.80;;;3.10;96.90;;;;;;4922125;29;20035;-77
2021/01/18 05:07:31;;;;;;;27.95;4.35;;;3.20;97.00;;;;;;4923712;29;20048;-77
2021/01/18 05:10:04;;;;;;;18.42;4.00;;;3.10;97.00;;;;;;4913366;29;20426;-77
2021/01/18 05:12:31;;;;;;;26.40;4.43;;;3.20;97.00;;;;;;4910965;29;20065;-75
2021/01/18 05:14:59;;;;;;;27.27;4.53;;;3.20;97.00;;;;;;4915476;29;20385;-75
2021/01/18 05:17:48;;;;;;;27.63;4.80;;;3.20;97.00;;;;;;4917156;29;20127;-74
2021/01/18 05:20:18;;;;;;;21.25;4.03;;;3.30;97.10;;;;;;4913853;29;20045;-75
2021/01/18 05:22:50;;;;;;;23.17;4.55;;;3.30;97.00;;;;;;4882919;29;20064;-75
2021/01/18 05:25:17;;;;;;;18.92;4.05;;;3.30;97.10;;;;;;4909038;29;20040;-75
2021/01/18 05:28:00;;;;;;;21.67;4.45;;;3.30;97.30;;;;;;4905664;29;20048;-75
2021/01/18 05:30:28;;;;;;;19.02;4.15;;;3.30;97.10;;;;;;4897698;29;20400;-75
2021/01/18 05:33:07;;;;;;;24.50;4.07;;;3.40;97.10;;;;;;4899979;29;20171;-76
2021/01/18 05:35:36;;;;;;;23.15;4.20;;;3.30;97.10;;;;;;4906488;29;20393;-77
2021/01/18 05:38:10;;;;;;;19.35;4.57;;;3.50;97.10;;;;;;4916759;29;20488;-75
2021/01/18 05:40:40;;;;;;;33.10;5.00;;;3.80;97.40;;;;;;4911795;29;20560;-75
2021/01/18 05:43:06;;;;;;;23.90;4.70;;;3.30;97.20;;;;;;4915052;29;20036;-75
2021/01/18 05:45:36;;;;;;;20.00;4.38;;;3.30;97.20;;;;;;4916274;29;20490;-75
2021/01/18 05:48:04;;;;;;;21.55;4.38;;;3.40;97.20;;;;;;4916123;29;20477;-74
2021/01/18 05:50:30;;;;;;;26.45;5.15;;;3.40;97.20;;;;;;4911446;29;20111;-75
2021/01/18 05:52:57;;;;;;;32.17;5.03;;;3.40;97.20;;;;;;4884348;29;20047;-75
2021/01/18 05:55:30;;;;;;;29.90;4.82;;;4.00;97.40;;;;;;4884195;29;20044;-75
2021/01/18 05:57:56;;;;;;;25.05;4.50;;;3.40;97.20;;;;;;4916543;29;20046;-74
2021/01/18 06:00:45;;;;;;;27.33;5.18;;;3.40;97.30;;;;;;4911850;29;20115;-75
2021/01/18 06:03:12;;;;;;;30.63;4.53;;;3.40;97.30;;;;;;4892635;29;20051;-75
2021/01/18 06:05:42;;;;;;;26.45;5.25;;;3.70;97.40;;;;;;4916542;29;20091;-74
2021/01/18 06:08:16;;;;;;;28.52;5.13;;;4.20;97.50;;;;;;4916506;29;20500;-74
2021/01/18 06:10:43;;;;;;;29.17;4.95;;;3.50;97.30;;;;;;4913969;29;20462;-74
2021/01/18 06:13:30;;;;;;;32.45;4.93;;;3.50;97.30;;;;;;4914918;29;20036;-74
2021/01/18 06:16:01;;;;;;;29.40;4.95;;;3.50;97.40;;;;;;4907210;29;20083;-74
2021/01/18 06:18:29;;;;;;;36.28;5.55;;;4.20;97.50;;;;;;4916258;29;20386;-74
2021/01/18 06:20:56;;;;;;;19.17;4.35;;;3.60;97.40;;;;;;4913000;29;20501;-74
2021/01/18 06:23:22;;;;;;;20.30;4.85;;;3.60;97.40;;;;;;4904607;29;20474;-74
2021/01/18 06:25:53;;;;;;;30.45;5.00;;;3.60;97.40;;;;;;4895762;29;20107;-74
2021/01/18 06:28:42;;;;;;;30.30;5.63;;;3.60;97.50;;;;;;4908750;29;20045;-77
2021/01/18 06:31:10;;;;;;;27.65;5.53;;;3.60;97.50;;;;;;4900297;29;20048;-76
2021/01/18 06:33:50;;;;;;;28.00;5.10;;;3.60;97.50;;;;;;4889635;29;20040;-77
2021/01/18 06:36:24;;;;;;;24.02;5.43;;;3.60;97.50;;;;;;4901866;29;20040;-77
2021/01/18 06:38:58;;;;;;;23.02;5.22;;;3.70;97.50;;;;;;4914622;29;20040;-77
2021/01/18 06:41:25;;;;;;;29.05;5.75;;;3.70;97.60;;;;;;4907691;29;20116;-74
2021/01/18 06:43:52;;;;;;;37.63;5.88;;;3.70;97.60;;;;;;4913068;29;20135;-74
2021/01/18 06:46:21;;;;;;;26.73;6.22;;;3.70;97.60;;;;;;4915867;29;20044;-74
2021/01/18 06:48:50;;;;;;;31.90;6.00;;;3.70;97.70;;;;;;4908317;29;20091;-74
2021/01/18 06:51:18;;;;;;;33.45;6.95;;;3.70;97.70;;;;;;4908028;29;20067;-73
2021/01/18 06:53:47;;;;;;;22.50;6.10;;;3.80;97.80;;;;;;4893265;29;20063;-78
2021/01/18 06:56:22;;;;;;;22.67;6.40;;;3.80;98.10;;;;;;4895891;29;20127;-77
2021/01/18 06:59:25;;;;;;;35.93;7.60;;;3.80;97.90;;;;;;4917046;29;20104;-76
2021/01/18 07:02:05;;;;;;;33.70;7.55;;;3.90;97.90;;;;;;4914340;29;20288;-76
2021/01/18 07:04:48;;;;;;;27.00;7.30;;;3.90;97.90;;;;;;4899856;29;20032;-76
2021/01/18 07:07:36;;;;;;;34.67;7.13;;;3.90;98.00;;;;;;4915515;29;20389;-76
2021/01/18 07:10:05;;;;;;;32.35;7.20;;;3.90;97.90;;;;;;4904829;29;20052;-76
2021/01/18 07:12:31;;;;;;;31.77;7.97;;;3.90;97.90;;;;;;4915775;29;20048;-80
2021/01/18 07:14:57;;;;;;;41.78;8.93;;;3.90;97.90;;;;;;4908188;29;20041;-73
2021/01/18 07:17:30;;;;;;;27.75;8.57;;;4.00;97.90;;;;;;4914071;29;20067;-74
2021/01/18 07:20:01;;;;;;;32.00;8.65;;;4.00;98.00;;;;;;4916305;29;20048;-74
2021/01/18 07:22:46;;;;;;;31.05;9.27;;;4.00;98.00;;;;;;4915548;29;20493;-77
2021/01/18 07:25:12;;;;;;;38.88;8.80;;;4.00;98.00;;;;;;4930934;29;20042;-80
2021/01/18 07:27:44;;;;;;;31.45;8.60;;;4.00;98.00;;;;;;4891896;29;20499;-79
2021/01/18 07:30:13;;;;;;;38.92;10.00;;;4.60;98.10;;;;;;4922382;29;20044;-74
2021/01/18 07:32:39;;;;;;;30.23;9.15;;;4.00;97.90;;;;;;4902276;29;20051;-74
2021/01/18 07:35:05;;;;;;;29.45;8.95;;;4.00;97.90;;;;;;4906711;29;20041;-76
2021/01/18 07:37:31;;;;;;;31.05;9.60;;;4.10;97.90;;;;;;4903211;29;20146;-76
2021/01/18 07:40:12;;;;;;;33.75;9.70;;;4.10;97.90;;;;;;4901575;29;20123;-76
2021/01/18 07:42:39;;;;;;;44.20;9.32;;;4.10;97.90;;;;;;4929495;29;20640;-80
2021/01/18 07:45:12;;;;;;;30.50;9.60;;;4.50;98.00;;;;;;4927681;29;20042;-79
2021/01/18 07:47:57;;;;;;;34.38;9.45;;;4.10;97.90;;;;;;4911019;29;20036;-79
2021/01/18 07:50:27;;;;;;;38.83;9.50;;;4.10;97.90;;;;;;4909427;29;20040;-73
2021/01/18 07:53:04;;;;;;;33.50;10.07;;;4.10;97.90;;;;;;4920490;29;20046;-74
2021/01/18 07:55:30;;;;;;;40.90;10.27;;;4.10;98.20;;;;;;4918062;29;20425;-74
2021/01/18 07:58:23;;;;;;;34.60;10.38;;;4.10;97.90;;;;;;4908832;29;20056;-73
2021/01/18 08:00:50;;;;;;;42.33;10.13;;;4.20;98.00;;;;;;4913382;29;20063;-74
2021/01/18 08:03:18;;;;;;;35.50;10.00;;;4.20;98.00;;;;;;4918592;29;20047;-74
2021/01/18 08:05:44;;;;;;;33.92;9.80;;;4.20;98.00;;;;;;4910644;29;20032;-74
2021/01/18 08:08:15;;;;;;;39.13;10.70;;;4.20;98.10;;;;;;4923973;29;20066;-74
2021/01/18 08:11:06;;;;;;;39.85;10.55;;;4.30;98.00;;;;;;4921148;29;20075;-73
2021/01/18 08:13:51;;;;;;;38.47;10.82;;;4.30;98.00;;;;;;4911978;29;20043;-74
2021/01/18 08:16:23;;;;;;;43.63;10.30;;;4.30;98.00;;;;;;4919005;29;20144;-74
2021/01/18 08:18:58;;;;;;;36.65;10.02;;;4.30;97.90;;;;;;4911559;29;20051;-76
2021/01/18 08:21:39;;;;;;;41.22;10.88;;;4.30;97.90;;;;;;4905645;29;20063;-74
2021/01/18 08:24:31;;;;;;;40.65;10.73;;;5.10;98.10;;;;;;4921476;29;20044;-74
2021/01/18 08:27:01;;;;;;;35.65;10.30;;;4.40;98.00;;;;;;4897045;29;20493;-73
2021/01/18 08:29:50;;;;;;;39.92;11.82;;;4.40;98.00;;;;;;4902249;29;20491;-76
2021/01/18 08:32:33;;;;;;;35.22;11.57;;;4.40;97.90;;;;;;4919675;29;20047;-76
2021/01/18 08:35:17;;;;;;;39.70;10.50;;;4.40;97.90;;;;;;4919325;29;20039;-77
2021/01/18 08:37:53;;;;;;;40.67;11.20;;;4.40;97.90;;;;;;4913605;29;20122;-74
2021/01/18 08:40:19;;;;;;;;;;;4.40;97.90;;;;;;4902373;29;20044;-74
2021/01/18 08:42:55;;;;;;;39.47;11.15;;;4.40;97.90;;;;;;4918014;29;19933;-74
2021/01/18 08:45:25;;;;;;;43.45;11.70;;;4.40;98.00;;;;;;4916811;29;20043;-74
2021/01/18 08:48:01;;;;;;;37.72;11.77;;;4.50;98.00;;;;;;4917939;29;20404;-74
2021/01/18 08:50:39;;;;;;;46.38;11.57;;;4.50;97.90;;;;;;4902916;29;20047;-74
2021/01/18 08:53:34;;;;;;;37.60;11.10;;;4.50;97.90;;;;;;4905111;29;20085;-76
2021/01/18 08:56:03;;;;;;;40.92;10.73;;;4.50;97.90;;;;;;4920076;29;20043;-76
2021/01/18 08:58:37;;;;;;;39.80;11.55;;;4.50;97.90;;;;;;4914149;29;20054;-74
2021/01/18 09:01:07;;;;;;;38.92;11.02;;;4.50;97.90;;;;;;4916085;29;20032;-80
2021/01/18 09:03:33;;;;;;;41.28;10.40;;;4.70;98.00;;;;;;4909529;29;20052;-78
2021/01/18 09:05:59;;;;;;;43.03;11.57;;;4.60;97.90;;;;;;4914222;29;20040;-79
2021/01/18 09:08:27;;;;;;;43.83;10.75;;;4.60;98.00;;;;;;4881410;29;20048;-81
2021/01/18 09:11:02;;;;;;;37.80;10.20;;;4.60;97.80;;;;;;4894936;29;20081;-79
2021/01/18 09:13:31;;;;;;;39.50;10.35;;;4.80;97.90;;;;;;4908738;29;20052;-80
2021/01/18 09:15:59;;;;;;;35.05;9.88;;;4.60;97.80;;;;;;4898312;29;20055;-79
2021/01/18 09:18:26;;;;;;;31.70;9.30;;;4.70;97.80;;;;;;4883102;29;20511;-78
2021/01/18 09:20:57;;;;;;;37.42;10.80;;;4.70;97.80;;;;;;4893131;29;20097;-77
2021/01/18 09:23:30;;;;;;;41.92;10.07;;;4.70;97.80;;;;;;4916660;29;20040;-79
2021/01/18 09:26:14;;;;;;;32.17;9.07;;;4.70;97.80;;;;;;4880552;29;20048;-79
2021/01/18 09:28:58;;;;;;;38.25;9.25;;;4.80;97.80;;;;;;4918967;29;20408;-80
2021/01/18 09:31:25;;;;;;;43.15;9.43;;;4.70;97.80;;;;;;4918797;29;20047;-78
2021/01/18 09:33:52;;;;;;;35.58;8.20;;;4.80;97.70;;;;;;4915773;29;20107;-79
2021/01/18 09:36:20;;;;;;;35.40;8.48;;;5.20;97.80;;;;;;4919296;29;20400;-77
2021/01/18 09:38:47;;;;;;;36.55;8.57;;;5.30;97.90;;;;;;4915753;29;20044;-77
2021/01/18 09:41:14;;;;;;;29.92;7.93;;;4.80;97.80;;;;;;4914621;29;20039;-77
2021/01/18 09:43:43;;;;;;;34.85;8.13;;;4.90;97.80;;;;;;4917453;29;20082;-77
2021/01/18 09:46:14;;;;;;;36.35;8.32;;;5.00;97.80;;;;;;4915674;29;20508;-77
2021/01/18 09:48:40;;;;;;;35.88;7.80;;;5.00;97.70;;;;;;4899901;29;20036;-77
2021/01/18 09:51:12;;;;;;;35.75;8.77;;;5.20;97.80;;;;;;4913843;29;20040;-78
2021/01/18 09:53:38;;;;;;;39.63;8.40;;;5.10;97.80;;;;;;4922027;29;20206;-76
2021/01/18 09:56:07;;;;;;;38.83;7.57;;;5.10;97.80;;;;;;4900356;29;20477;-76
2021/01/18 09:58:38;;;;;;;29.85;6.93;;;5.10;97.70;;;;;;4916569;29;20119;-75
2021/01/18 10:01:33;;;;;;;32.53;6.53;;;5.10;97.80;;;;;;4918523;29;20060;-77
2021/01/18 10:04:02;;;;;;;40.03;8.25;;;5.20;97.80;;;;;;4895104;29;20385;-77
2021/01/18 10:06:30;;;;;;;27.70;6.55;;;5.20;97.80;;;;;;4919135;29;20119;-77
2021/01/18 10:09:08;;;;;;;29.85;6.38;;;5.20;97.90;;;;;;4886801;29;20044;-79
2021/01/18 10:11:43;;;;;;;33.33;7.60;;;5.20;97.90;;;;;;4913858;29;20072;-79
2021/01/18 10:14:17;;;;;;;31.90;7.10;;;5.30;97.90;;;;;;4919239;29;20416;-79
2021/01/18 10:17:05;;;;;;;42.85;6.53;;;5.30;97.90;;;;;;4920563;29;20202;-79
2021/01/18 10:19:33;;;;;;;32.97;6.20;;;5.30;97.70;;;;;;4899709;29;20069;-78
2021/01/18 10:22:00;;;;;;;31.05;5.97;;;5.30;97.70;;;;;;4914662;29;20048;-79
2021/01/18 10:24:32;;;;;;;51.78;6.47;;;5.40;97.70;;;;;;4915271;29;20206;-76
2021/01/18 10:27:04;;;;;;;29.55;6.05;;;5.40;97.70;;;;;;4915507;29;20047;-79
2021/01/18 10:29:38;;;;;;;34.38;6.05;;;5.40;97.60;;;;;;4895873;29;20043;-80
2021/01/18 10:32:05;;;;;;;31.05;5.88;;;5.40;97.80;;;;;;4916675;29;20039;-83
2021/01/18 10:34:36;;;;;;;29.50;6.13;;;5.40;97.70;;;;;;4919634;29;20499;-81
2021/01/18 10:37:13;;;;;;;34.45;6.07;;;5.50;97.80;;;;;;4900009;29;20048;-81
2021/01/18 10:39:41;;;;;;;32.03;5.97;;;5.50;97.80;;;;;;4895233;29;20051;-83
2021/01/18 10:42:09;;;;;;;27.13;5.57;;;5.50;97.80;;;;;;4909572;29;20128;-84
2021/01/18 10:44:38;;;;;;;35.85;9.18;;;5.50;98.00;;;;;;4899474;29;20040;-83
2021/01/18 10:47:05;;;;;;;27.35;5.55;;;5.50;97.90;;;;;;4899318;29;20032;-82
2021/01/18 10:49:33;;;;;;;35.90;5.57;;;5.50;98.00;;;;;;4908598;29;20043;-85
2021/01/18 10:52:07;;;;;;;21.38;5.13;;;6.20;98.10;;;;;;4900786;29;20202;-83
2021/01/18 10:54:34;;;;;;;28.35;5.55;;;5.50;97.90;;;;;;4890404;29;20071;-79
2021/01/18 10:57:01;;;;;;;36.17;5.95;;;5.50;98.00;;;;;;4907177;29;20040;-82
2021/01/18 10:59:30;;;;;;;32.08;6.28;;;5.50;98.00;;;;;;4918866;29;20064;-79
2021/01/18 11:02:03;;;;;;;25.80;6.15;;;5.50;98.10;;;;;;4887057;29;20497;-79
2021/01/18 11:04:29;;;;;;;25.48;5.28;;;5.50;98.10;;;;;;4918290;29;20040;-82
2021/01/18 11:06:56;;;;;;;33.58;5.55;;;5.50;98.00;;;;;;4919792;29;20083;-81
2021/01/18 11:09:34;;;;;;;25.35;5.22;;;5.50;98.00;;;;;;4901777;29;20036;-80
2021/01/18 11:15:15;;;;;;;24.10;4.80;;;5.50;97.90;;;;;;4895391;29;20044;-79
2021/01/18 11:17:41;;;;;;;31.23;4.70;;;5.50;97.90;;;;;;4901683;29;20032;-81
2021/01/18 11:20:08;;;;;;;24.88;4.60;;;6.00;98.20;;;;;;4902199;29;20048;-82
2021/01/18 11:22:45;;;;;;;;;;;;;;;;;;;;;
2021/01/18 11:25:18;;;;;;;32.03;4.45;;;5.60;98.10;;;;;;4910354;29;20091;-81
2021/01/18 11:27:44;;;;;;;21.52;4.57;;;5.60;98.20;;;;;;4886953;29;20500;-80
2021/01/18 11:30:11;;;;;;;24.95;4.70;;;6.10;98.40;;;;;;4919179;29;20040;-79
2021/01/18 11:32:37;;;;;;;24.05;4.45;;;5.60;98.20;;;;;;4921958;29;20036;-78
2021/01/18 11:35:04;;;;;;;22.33;4.25;;;5.60;98.30;;;;;;4926591;29;20377;-79
2021/01/18 11:37:31;;;;;;;28.77;4.88;;;5.60;98.30;;;;;;4931644;29;20040;-80
2021/01/18 11:39:57;;;;;;;26.38;4.78;;;5.60;98.30;;;;;;4908264;29;20040;-79
2021/01/18 11:42:23;;;;;;;26.00;4.47;;;5.60;98.50;;;;;;4903415;29;20043;-76
2021/01/18 11:44:49;;;;;;;24.25;4.13;;;5.60;98.50;;;;;;4902175;29;20115;-83
2021/01/18 11:47:15;;;;;;;28.88;4.60;;;5.60;98.60;;;;;;4892602;29;20134;-82
2021/01/18 11:49:41;;;;;;;31.98;5.10;;;5.60;98.50;;;;;;4917684;29;20115;-78
2021/01/18 11:52:07;;;;;;;26.13;4.72;;;6.20;98.70;;;;;;4916015;29;20036;-78
2021/01/18 11:54:32;;;;;;;23.45;4.25;;;5.60;98.50;;;;;;4921312;29;20044;-78
2021/01/18 11:56:58;;;;;;;35.92;5.05;;;5.60;98.40;;;;;;4922568;29;20078;-78
2021/01/18 11:59:26;;;;;;;34.80;4.82;;;5.70;98.30;;;;;;4885842;29;20420;-78
2021/01/18 12:01:52;;;;;;;28.55;5.00;;;5.70;98.30;;;;;;4926067;29;20036;-78
2021/01/18 12:04:18;;;;;;;41.38;5.07;;;5.70;98.40;;;;;;4902815;29;20032;-78
2021/01/18 12:06:44;;;;;;;27.58;4.72;;;5.70;98.40;;;;;;4919995;29;20122;-78
2021/01/18 12:09:10;;;;;;;40.83;5.47;;;5.70;98.40;;;;;;4906042;29;20036;-78
2021/01/18 12:11:40;;;;;;;32.35;4.68;;;5.70;98.30;;;;;;4906708;29;20143;-78
2021/01/18 12:14:07;;;;;;;27.00;4.63;;;5.80;98.40;;;;;;4899925;29;20047;-78
2021/01/18 12:17:02;;;;;;;34.88;5.25;;;5.70;98.40;;;;;;4916439;29;20409;-78
2021/01/18 12:19:34;;;;;;;32.28;5.22;;;5.70;98.20;;;;;;4876012;29;20052;-86
2021/01/18 12:22:00;;;;;;;33.15;4.35;;;5.80;98.40;;;;;;4928085;29;20055;-79
2021/01/18 12:24:28;;;;;;;40.30;5.18;;;6.10;98.40;;;;;;4929317;29;20508;-78
2021/01/18 12:26:55;;;;;;;26.52;5.18;;;5.80;98.30;;;;;;4918925;29;20051;-77
2021/01/18 12:29:21;;;;;;;30.63;4.63;;;5.80;98.20;;;;;;4918331;29;20044;-78
2021/01/18 12:31:48;;;;;;;36.38;5.03;;;5.90;98.20;;;;;;4903930;29;20036;-76
2021/01/18 12:34:19;;;;;;;32.83;5.40;;;6.30;98.30;;;;;;4902531;29;20127;-79
2021/01/18 12:36:53;;;;;;;30.90;4.35;;;5.90;98.10;;;;;;4918988;29;20072;-76
2021/01/18 12:39:19;;;;;;;26.15;4.18;;;6.00;98.30;;;;;;4908278;29;20040;-77
2021/01/18 12:41:45;;;;;;;27.98;3.97;;;6.00;97.90;;;;;;4901978;29;20198;-76
2021/01/18 12:44:11;;;;;;;34.97;4.75;;;6.00;97.90;;;;;;4918278;29;20040;-76
2021/01/18 12:46:36;;;;;;;28.70;4.47;;;6.00;97.80;;;;;;4885415;29;20080;-77
2021/01/18 12:49:02;;;;;;;28.27;4.78;;;6.00;97.80;;;;;;4900315;29;20044;-76
2021/01/18 12:51:28;;;;;;;34.53;5.15;;;6.00;97.80;;;;;;4919548;29;20095;-79
2021/01/18 12:53:54;;;;;;;27.88;4.45;;;6.00;97.70;;;;;;4902040;29;20047;-77
2021/01/18 12:56:30;;;;;;;26.13;4.30;;;6.00;97.70;;;;;;4917425;29;20045;-76
2021/01/18 12:58:56;;;;;;;22.05;4.45;;;6.00;97.50;;;;;;4901619;29;20043;-78
2021/01/18 13:01:29;;;;;;;22.13;4.28;;;6.00;97.50;;;;;;4909085;29;20079;-79
2021/01/18 13:03:55;;;;;;;28.05;4.45;;;6.00;97.40;;;;;;4916933;29;20532;-76
2021/01/18 13:06:38;;;;;;;33.47;4.55;;;6.00;97.40;;;;;;4917163;29;20055;-76
2021/01/18 13:09:10;;;;;;;26.48;4.20;;;6.10;97.40;;;;;;4901323;29;20405;-82
2021/01/18 13:11:36;;;;;;;28.23;4.10;;;6.80;97.50;;;;;;4917519;29;20039;-77